Yechon Air Base, South Korea

8:08 PM KST on July 29, 2014 (GMT +0900)
Chongju International (RKTU) Elev 190 ft | 36.72 °N, 127.50 °E | Change Station

Current weather conditions updated 23 minutes ago

Clear
Clear
75 °F
Feels Like 75 °F
N
5
Wind Variable Wind from ENE

Tomorrow is forecast to be Much Warmer than today. Afternoon thunderstorms.

Today
High -- | Low -- °F
--% Chance of Precip.
Yesterday
High -- | Low -- °F
Precip. -- in
5:29 AM 7:35 PM
Waxing Crescent, 6% visible
Pressure 29.80 in
Visibility -9999.0 miles
Clouds
Dew Point 70 °F
Humidity 83%
Rainfall 0.00 in
Snow Depth Not available.
UV Not available.
Pollen Not available.
Air Quality Not available.
Flu Activity Not available.
SPECI RKTU 291045Z 06004KT CAVOK 24/21 Q1009 NOSIG

More Conditions Fewer Conditions

Pressure 29.80 in
Visibility -9999.0 miles
Clouds
Dew Point 70 °F
Humidity 83%
Rainfall 0.00 in
Snow Depth Not available.
UV Not available.
Pollen Not available.
Air Quality Not available.
Flu Activity Not available.
SPECI RKTU 291045Z 06004KT CAVOK 24/21 Q1009 NOSIG

More Conditions Fewer Conditions

10-Day Weather Forecast

Almanac

Astronomy

Jul. 29, 2014 Rise Set
Actual Time 5:29 AM KST 7:35 PM KST
Civil Twilight 5:00 AM KST 8:04 PM KST
Nautical Twilight 4:25 AM KST 8:39 PM KST
Astronomical Twilight 3:47 AM KST 9:17 PM KST
Moon 7:28 AM KST 8:35 PM KST
Length of Visible Light 15h 03m
Length of Day
14h 06m
Tomorrow will be 1m 40s shorter.
Waxing Crescent, 6% of the Moon is Illuminated
Today
Waxing Crescent
Aug 3
First Quarter
Aug 10
Full
Aug 17
Last Quarter
Aug 25
New

Yesterday's Extremes

Country Highs Country Lows

Community

WunderPhotos

Upload Photos

1,738,685 photos uploaded!

Nearby

Snow Depth

Not available.

Earthquake Activity

City Distance Mag. Time & Date
No recent earthquake activity has been reported nearby.
Minimum magnitude displayed is 2.5.

Coastal Water Temperatures

Place Temperature
No Stations Reporting

Nearby Weather Stations

There are no personal weather stations in this area.